CheckWX is a tool to help pilots better visualize weather data.  It is not intended as a substitute for an official pre-flight weather briefing.

02:49:22 UTC

KEND METAR
Vance AFB Airport
Enid, Oklahoma, USA
Current

53 mins ago

KEND 180156Z AUTO 36014KT 10SM CLR 00/M06 A3013 RMK AO2 PRESRR SLP220 T00001064 $
Observed
Feb-18 @ 01:56 UTC
Wind
  • 360° at 14 KTS
Visibility
10 SM
Flight Rules
VFR
Cloud Levels
  • Clear skies
Temperature
C / 32°F
Dewpoint
-6°C / 21°F
Humidity
64%
Altimeter
30.13" Hg
Pressure
1022 hPa
Previous

2 hours ago

KEND 180056Z AUTO 36009KT 10SM CLR 01/M06 A3007 RMK AO2 SLP198 T00131063 $
Observed
Feb-18 @ 00:56 UTC
Wind
  • 360° at 9 KTS
Visibility
10 SM
Flight Rules
VFR
Cloud Levels
  • Clear skies
Temperature
C / 34°F
Dewpoint
-6°C / 21°F
Humidity
60%
Altimeter
30.07" Hg
Pressure
1019.8 hPa
Previous

3 hours ago

KEND 172356Z AUTO 34010KT 10SM CLR 04/M06 A3004 RMK AO2 SLP186 T00391061 10060 20024 53014 $
Observed
Feb-17 @ 23:56 UTC
Wind
  • 340° at 10 KTS
Visibility
10 SM
Flight Rules
VFR
Cloud Levels
  • Clear skies
Temperature
C / 39°F
Dewpoint
-6°C / 21°F
Humidity
48%
Altimeter
30.04" Hg
Pressure
1018.6 hPa